sensor_id;sensor_type;location;lat;lon;timestamp;pressure;altitude;pressure_sealevel;temperature
25514;BMP180;48128;54.242;10.280;2024-02-16T00:01:13;100733.00;;;10.70
25514;BMP180;48128;54.242;10.280;2024-02-16T00:03:40;100732.00;;;10.70
25514;BMP180;48128;54.242;10.280;2024-02-16T00:06:07;100746.00;;;10.70
25514;BMP180;48128;54.242;10.280;2024-02-16T00:08:34;100734.00;;;10.60
25514;BMP180;48128;54.242;10.280;2024-02-16T00:11:01;100726.00;;;10.60
25514;BMP180;48128;54.242;10.280;2024-02-16T00:13:28;100734.00;;;10.60
25514;BMP180;48128;54.242;10.280;2024-02-16T00:15:55;100734.00;;;10.60
25514;BMP180;48128;54.242;10.280;2024-02-16T00:18:22;100734.00;;;10.60
25514;BMP180;48128;54.242;10.280;2024-02-16T00:20:49;100730.00;;;10.60
25514;BMP180;48128;54.242;10.280;2024-02-16T00:23:16;100721.00;;;10.60
25514;BMP180;48128;54.242;10.280;2024-02-16T00:25:45;100721.00;;;10.60
25514;BMP180;48128;54.242;10.280;2024-02-16T00:28:12;100711.00;;;10.60
25514;BMP180;48128;54.242;10.280;2024-02-16T00:30:39;100722.00;;;10.50
25514;BMP180;48128;54.242;10.280;2024-02-16T00:33:07;100719.00;;;10.50
25514;BMP180;48128;54.242;10.280;2024-02-16T00:35:34;100708.00;;;10.40
25514;BMP180;48128;54.242;10.280;2024-02-16T00:38:01;100705.00;;;10.40
25514;BMP180;48128;54.242;10.280;2024-02-16T00:40:28;100689.00;;;10.40
25514;BMP180;48128;54.242;10.280;2024-02-16T00:42:55;100691.00;;;10.30
25514;BMP180;48128;54.242;10.280;2024-02-16T00:45:22;100678.00;;;10.30
25514;BMP180;48128;54.242;10.280;2024-02-16T00:47:49;100680.00;;;10.20
25514;BMP180;48128;54.242;10.280;2024-02-16T00:50:16;100685.00;;;10.20
25514;BMP180;48128;54.242;10.280;2024-02-16T00:52:43;100689.00;;;10.10
25514;BMP180;48128;54.242;10.280;2024-02-16T00:55:12;100677.00;;;10.10
25514;BMP180;48128;54.242;10.280;2024-02-16T00:57:39;100686.00;;;10.10
25514;BMP180;48128;54.242;10.280;2024-02-16T01:00:07;100684.00;;;10.00
25514;BMP180;48128;54.242;10.280;2024-02-16T01:02:36;100676.00;;;10.00
25514;BMP180;48128;54.242;10.280;2024-02-16T01:05:03;100683.00;;;10.00
25514;BMP180;48128;54.242;10.280;2024-02-16T01:07:30;100674.00;;;9.90
25514;BMP180;48128;54.242;10.280;2024-02-16T01:09:59;100680.00;;;9.90
25514;BMP180;48128;54.242;10.280;2024-02-16T01:12:26;100670.00;;;9.80
25514;BMP180;48128;54.242;10.280;2024-02-16T01:14:53;100665.00;;;9.80
25514;BMP180;48128;54.242;10.280;2024-02-16T01:17:20;100662.00;;;9.80
25514;BMP180;48128;54.242;10.280;2024-02-16T01:19:47;100657.00;;;9.80
25514;BMP180;48128;54.242;10.280;2024-02-16T01:22:14;100659.00;;;9.80
25514;BMP180;48128;54.242;10.280;2024-02-16T01:24:41;100662.00;;;9.80
25514;BMP180;48128;54.242;10.280;2024-02-16T01:27:08;100654.00;;;9.80
25514;BMP180;48128;54.242;10.280;2024-02-16T01:29:35;100663.00;;;9.80
25514;BMP180;48128;54.242;10.280;2024-02-16T01:32:02;100657.00;;;9.80
25514;BMP180;48128;54.242;10.280;2024-02-16T01:34:29;100656.00;;;9.80
25514;BMP180;48128;54.242;10.280;2024-02-16T01:36:59;100656.00;;;9.80
25514;BMP180;48128;54.242;10.280;2024-02-16T01:39:26;100655.00;;;9.80
25514;BMP180;48128;54.242;10.280;2024-02-16T01:41:53;100654.00;;;9.80
25514;BMP180;48128;54.242;10.280;2024-02-16T01:44:20;100639.00;;;9.80
25514;BMP180;48128;54.242;10.280;2024-02-16T01:46:47;100645.00;;;9.80
25514;BMP180;48128;54.242;10.280;2024-02-16T01:49:15;100641.00;;;9.80
25514;BMP180;48128;54.242;10.280;2024-02-16T01:51:42;100645.00;;;9.80
25514;BMP180;48128;54.242;10.280;2024-02-16T01:54:09;100633.00;;;9.80
25514;BMP180;48128;54.242;10.280;2024-02-16T01:56:36;100637.00;;;9.80
25514;BMP180;48128;54.242;10.280;2024-02-16T01:59:02;100628.00;;;9.80
25514;BMP180;48128;54.242;10.280;2024-02-16T02:01:30;100635.00;;;9.90
25514;BMP180;48128;54.242;10.280;2024-02-16T02:03:57;100627.00;;;9.90
25514;BMP180;48128;54.242;10.280;2024-02-16T02:06:24;100629.00;;;9.90
25514;BMP180;48128;54.242;10.280;2024-02-16T02:08:51;100626.00;;;9.90
25514;BMP180;48128;54.242;10.280;2024-02-16T02:11:18;100631.00;;;9.90
25514;BMP180;48128;54.242;10.280;2024-02-16T02:13:45;100624.00;;;9.90
25514;BMP180;48128;54.242;10.280;2024-02-16T02:16:12;100614.00;;;9.90
25514;BMP180;48128;54.242;10.280;2024-02-16T02:18:40;100613.00;;;9.90
25514;BMP180;48128;54.242;10.280;2024-02-16T02:21:07;100613.00;;;9.90
25514;BMP180;48128;54.242;10.280;2024-02-16T02:23:34;100602.00;;;9.90
25514;BMP180;48128;54.242;10.280;2024-02-16T02:26:01;100579.00;;;9.90
25514;BMP180;48128;54.242;10.280;2024-02-16T02:28:28;100568.00;;;9.90
25514;BMP180;48128;54.242;10.280;2024-02-16T02:30:56;100559.00;;;9.90
25514;BMP180;48128;54.242;10.280;2024-02-16T02:33:23;100556.00;;;9.90
25514;BMP180;48128;54.242;10.280;2024-02-16T02:35:50;100566.00;;;9.90
25514;BMP180;48128;54.242;10.280;2024-02-16T02:38:18;100566.00;;;9.90
25514;BMP180;48128;54.242;10.280;2024-02-16T02:40:44;100553.00;;;9.90
25514;BMP180;48128;54.242;10.280;2024-02-16T02:43:11;100555.00;;;9.90
25514;BMP180;48128;54.242;10.280;2024-02-16T02:45:38;100552.00;;;9.90
25514;BMP180;48128;54.242;10.280;2024-02-16T02:48:06;100557.00;;;9.90
25514;BMP180;48128;54.242;10.280;2024-02-16T02:50:33;100542.00;;;9.90
25514;BMP180;48128;54.242;10.280;2024-02-16T02:52:59;100540.00;;;9.90
25514;BMP180;48128;54.242;10.280;2024-02-16T02:55:26;100527.00;;;9.90
25514;BMP180;48128;54.242;10.280;2024-02-16T02:57:53;100527.00;;;9.90
25514;BMP180;48128;54.242;10.280;2024-02-16T03:00:20;100527.00;;;9.90
25514;BMP180;48128;54.242;10.280;2024-02-16T03:02:47;100524.00;;;9.90
25514;BMP180;48128;54.242;10.280;2024-02-16T03:05:15;100539.00;;;9.90
25514;BMP180;48128;54.242;10.280;2024-02-16T03:07:42;100516.00;;;9.90
25514;BMP180;48128;54.242;10.280;2024-02-16T03:10:10;100516.00;;;9.80
25514;BMP180;48128;54.242;10.280;2024-02-16T03:12:37;100521.00;;;9.90
25514;BMP180;48128;54.242;10.280;2024-02-16T03:15:04;100521.00;;;9.80
25514;BMP180;48128;54.242;10.280;2024-02-16T03:17:31;100524.00;;;9.90
25514;BMP180;48128;54.242;10.280;2024-02-16T03:19:58;100519.00;;;9.90
25514;BMP180;48128;54.242;10.280;2024-02-16T03:22:25;100517.00;;;9.90
25514;BMP180;48128;54.242;10.280;2024-02-16T03:24:52;100527.00;;;9.90
25514;BMP180;48128;54.242;10.280;2024-02-16T03:27:19;100526.00;;;9.90
25514;BMP180;48128;54.242;10.280;2024-02-16T03:29:46;100515.00;;;9.90
25514;BMP180;48128;54.242;10.280;2024-02-16T03:32:12;100522.00;;;9.90
25514;BMP180;48128;54.242;10.280;2024-02-16T03:34:40;100525.00;;;9.90
25514;BMP180;48128;54.242;10.280;2024-02-16T03:37:07;100521.00;;;9.90
25514;BMP180;48128;54.242;10.280;2024-02-16T03:39:35;100513.00;;;9.90
25514;BMP180;48128;54.242;10.280;2024-02-16T03:42:02;100521.00;;;9.90
25514;BMP180;48128;54.242;10.280;2024-02-16T03:44:29;100511.00;;;9.90
25514;BMP180;48128;54.242;10.280;2024-02-16T03:46:56;100511.00;;;9.90
25514;BMP180;48128;54.242;10.280;2024-02-16T03:49:25;100509.00;;;9.90
25514;BMP180;48128;54.242;10.280;2024-02-16T03:51:52;100504.00;;;9.90
25514;BMP180;48128;54.242;10.280;2024-02-16T03:54:19;100503.00;;;9.90
25514;BMP180;48128;54.242;10.280;2024-02-16T03:56:46;100490.00;;;9.90
25514;BMP180;48128;54.242;10.280;2024-02-16T03:59:13;100497.00;;;9.90
25514;BMP180;48128;54.242;10.280;2024-02-16T04:01:39;100500.00;;;9.90
25514;BMP180;48128;54.242;10.280;2024-02-16T04:04:08;100502.00;;;9.90
25514;BMP180;48128;54.242;10.280;2024-02-16T04:06:36;100510.00;;;10.00
25514;BMP180;48128;54.242;10.280;2024-02-16T04:09:03;100514.00;;;10.00
25514;BMP180;48128;54.242;10.280;2024-02-16T04:11:32;100503.00;;;10.00
25514;BMP180;48128;54.242;10.280;2024-02-16T04:14:00;100505.00;;;10.00
25514;BMP180;48128;54.242;10.280;2024-02-16T04:16:28;100510.00;;;10.00
25514;BMP180;48128;54.242;10.280;2024-02-16T04:18:55;100510.00;;;10.00
25514;BMP180;48128;54.242;10.280;2024-02-16T04:21:22;100507.00;;;10.00
25514;BMP180;48128;54.242;10.280;2024-02-16T04:23:49;100508.00;;;10.10
25514;BMP180;48128;54.242;10.280;2024-02-16T04:26:16;100505.00;;;10.10
25514;BMP180;48128;54.242;10.280;2024-02-16T04:28:43;100509.00;;;10.10
25514;BMP180;48128;54.242;10.280;2024-02-16T04:31:10;100501.00;;;10.00
25514;BMP180;48128;54.242;10.280;2024-02-16T04:33:37;100504.00;;;10.00
25514;BMP180;48128;54.242;10.280;2024-02-16T04:36:06;100511.00;;;10.00
25514;BMP180;48128;54.242;10.280;2024-02-16T04:38:34;100498.00;;;10.00
25514;BMP180;48128;54.242;10.280;2024-02-16T04:41:01;100490.00;;;10.00
25514;BMP180;48128;54.242;10.280;2024-02-16T04:43:27;100501.00;;;10.00
25514;BMP180;48128;54.242;10.280;2024-02-16T04:45:54;100505.00;;;10.00
25514;BMP180;48128;54.242;10.280;2024-02-16T04:48:21;100498.00;;;9.90
25514;BMP180;48128;54.242;10.280;2024-02-16T04:50:48;100503.00;;;9.90
25514;BMP180;48128;54.242;10.280;2024-02-16T04:53:15;100494.00;;;9.90
25514;BMP180;48128;54.242;10.280;2024-02-16T04:55:43;100499.00;;;9.90
25514;BMP180;48128;54.242;10.280;2024-02-16T04:58:09;100504.00;;;9.90
25514;BMP180;48128;54.242;10.280;2024-02-16T05:00:37;100492.00;;;9.90
25514;BMP180;48128;54.242;10.280;2024-02-16T05:03:05;100501.00;;;9.90
25514;BMP180;48128;54.242;10.280;2024-02-16T05:05:32;100504.00;;;9.90
25514;BMP180;48128;54.242;10.280;2024-02-16T05:07:59;100498.00;;;9.80
25514;BMP180;48128;54.242;10.280;2024-02-16T05:10:26;100491.00;;;9.90
25514;BMP180;48128;54.242;10.280;2024-02-16T05:12:53;100494.00;;;9.90
25514;BMP180;48128;54.242;10.280;2024-02-16T05:15:20;100491.00;;;9.90
25514;BMP180;48128;54.242;10.280;2024-02-16T05:17:47;100478.00;;;9.90
25514;BMP180;48128;54.242;10.280;2024-02-16T05:20:18;100486.00;;;9.90
25514;BMP180;48128;54.242;10.280;2024-02-16T05:22:46;100481.00;;;9.80
25514;BMP180;48128;54.242;10.280;2024-02-16T05:25:13;100479.00;;;9.80
25514;BMP180;48128;54.242;10.280;2024-02-16T05:27:41;100477.00;;;9.80
25514;BMP180;48128;54.242;10.280;2024-02-16T05:30:11;100485.00;;;9.80
25514;BMP180;48128;54.242;10.280;2024-02-16T05:32:41;100482.00;;;9.80
25514;BMP180;48128;54.242;10.280;2024-02-16T05:35:09;100471.00;;;9.80
25514;BMP180;48128;54.242;10.280;2024-02-16T05:37:43;100473.00;;;9.70
25514;BMP180;48128;54.242;10.280;2024-02-16T05:40:11;100476.00;;;9.70
25514;BMP180;48128;54.242;10.280;2024-02-16T05:42:56;100474.00;;;9.70
25514;BMP180;48128;54.242;10.280;2024-02-16T05:45:26;100463.00;;;9.70
25514;BMP180;48128;54.242;10.280;2024-02-16T05:47:53;100475.00;;;9.70
25514;BMP180;48128;54.242;10.280;2024-02-16T05:50:21;100477.00;;;9.70
25514;BMP180;48128;54.242;10.280;2024-02-16T05:52:48;100477.00;;;9.70
25514;BMP180;48128;54.242;10.280;2024-02-16T05:55:17;100471.00;;;9.70
25514;BMP180;48128;54.242;10.280;2024-02-16T05:57:45;100474.00;;;9.70
25514;BMP180;48128;54.242;10.280;2024-02-16T06:00:14;100464.00;;;9.70
25514;BMP180;48128;54.242;10.280;2024-02-16T06:02:42;100470.00;;;9.70
25514;BMP180;48128;54.242;10.280;2024-02-16T06:05:09;100460.00;;;9.70
25514;BMP180;48128;54.242;10.280;2024-02-16T06:07:37;100465.00;;;9.70
25514;BMP180;48128;54.242;10.280;2024-02-16T06:10:06;100464.00;;;9.70
25514;BMP180;48128;54.242;10.280;2024-02-16T06:12:37;100466.00;;;9.70
25514;BMP180;48128;54.242;10.280;2024-02-16T06:15:05;100474.00;;;9.70
25514;BMP180;48128;54.242;10.280;2024-02-16T06:17:32;100473.00;;;9.70
25514;BMP180;48128;54.242;10.280;2024-02-16T06:20:00;100470.00;;;9.70
25514;BMP180;48128;54.242;10.280;2024-02-16T06:22:28;100473.00;;;9.70
25514;BMP180;48128;54.242;10.280;2024-02-16T06:24:55;100476.00;;;9.70
25514;BMP180;48128;54.242;10.280;2024-02-16T06:27:21;100469.00;;;9.70
25514;BMP180;48128;54.242;10.280;2024-02-16T06:29:48;100470.00;;;9.70
25514;BMP180;48128;54.242;10.280;2024-02-16T06:32:15;100473.00;;;9.60
25514;BMP180;48128;54.242;10.280;2024-02-16T06:34:43;100468.00;;;9.60
25514;BMP180;48128;54.242;10.280;2024-02-16T06:37:12;100476.00;;;9.60
25514;BMP180;48128;54.242;10.280;2024-02-16T06:39:39;100475.00;;;9.60
25514;BMP180;48128;54.242;10.280;2024-02-16T06:42:06;100475.00;;;9.60
25514;BMP180;48128;54.242;10.280;2024-02-16T06:44:33;100476.00;;;9.60
25514;BMP180;48128;54.242;10.280;2024-02-16T06:47:00;100468.00;;;9.60
25514;BMP180;48128;54.242;10.280;2024-02-16T06:49:27;100471.00;;;9.60
25514;BMP180;48128;54.242;10.280;2024-02-16T06:51:54;100459.00;;;9.60
25514;BMP180;48128;54.242;10.280;2024-02-16T06:54:22;100462.00;;;9.60
25514;BMP180;48128;54.242;10.280;2024-02-16T06:56:49;100462.00;;;9.60
25514;BMP180;48128;54.242;10.280;2024-02-16T06:59:18;100451.00;;;9.60
25514;BMP180;48128;54.242;10.280;2024-02-16T07:01:45;100463.00;;;9.60
25514;BMP180;48128;54.242;10.280;2024-02-16T07:04:12;100477.00;;;9.60
25514;BMP180;48128;54.242;10.280;2024-02-16T07:06:39;100461.00;;;9.60
25514;BMP180;48128;54.242;10.280;2024-02-16T07:09:07;100465.00;;;9.60
25514;BMP180;48128;54.242;10.280;2024-02-16T07:11:34;100474.00;;;9.60
25514;BMP180;48128;54.242;10.280;2024-02-16T07:14:02;100461.00;;;9.60
25514;BMP180;48128;54.242;10.280;2024-02-16T07:16:29;100466.00;;;9.60
25514;BMP180;48128;54.242;10.280;2024-02-16T07:18:57;100463.00;;;9.60
25514;BMP180;48128;54.242;10.280;2024-02-16T07:21:24;100458.00;;;9.60
25514;BMP180;48128;54.242;10.280;2024-02-16T07:23:53;100463.00;;;9.60
25514;BMP180;48128;54.242;10.280;2024-02-16T07:26:20;100453.00;;;9.60
25514;BMP180;48128;54.242;10.280;2024-02-16T07:28:47;100459.00;;;9.60
25514;BMP180;48128;54.242;10.280;2024-02-16T07:31:14;100465.00;;;9.70
25514;BMP180;48128;54.242;10.280;2024-02-16T07:33:41;100474.00;;;9.70
25514;BMP180;48128;54.242;10.280;2024-02-16T07:36:09;100459.00;;;9.70
25514;BMP180;48128;54.242;10.280;2024-02-16T07:38:36;100465.00;;;9.70
25514;BMP180;48128;54.242;10.280;2024-02-16T07:41:03;100475.00;;;9.80
25514;BMP180;48128;54.242;10.280;2024-02-16T07:43:35;100473.00;;;9.80
25514;BMP180;48128;54.242;10.280;2024-02-16T07:46:01;100472.00;;;9.90
25514;BMP180;48128;54.242;10.280;2024-02-16T07:48:30;100463.00;;;9.90
25514;BMP180;48128;54.242;10.280;2024-02-16T07:50:57;100475.00;;;10.00
25514;BMP180;48128;54.242;10.280;2024-02-16T07:53:30;100474.00;;;10.10
25514;BMP180;48128;54.242;10.280;2024-02-16T07:55:57;100472.00;;;10.20
25514;BMP180;48128;54.242;10.280;2024-02-16T07:58:27;100478.00;;;10.20
25514;BMP180;48128;54.242;10.280;2024-02-16T08:00:54;100476.00;;;10.30
25514;BMP180;48128;54.242;10.280;2024-02-16T08:03:22;100470.00;;;10.30
25514;BMP180;48128;54.242;10.280;2024-02-16T08:05:49;100491.00;;;10.40
25514;BMP180;48128;54.242;10.280;2024-02-16T08:08:16;100477.00;;;10.40
25514;BMP180;48128;54.242;10.280;2024-02-16T08:10:43;100476.00;;;10.50
25514;BMP180;48128;54.242;10.280;2024-02-16T08:13:10;100475.00;;;10.50
25514;BMP180;48128;54.242;10.280;2024-02-16T08:15:37;100472.00;;;10.60
25514;BMP180;48128;54.242;10.280;2024-02-16T08:18:04;100481.00;;;10.60
25514;BMP180;48128;54.242;10.280;2024-02-16T08:20:32;100477.00;;;10.70
25514;BMP180;48128;54.242;10.280;2024-02-16T08:22:59;100476.00;;;10.70
25514;BMP180;48128;54.242;10.280;2024-02-16T08:25:26;100475.00;;;10.80
25514;BMP180;48128;54.242;10.280;2024-02-16T08:27:54;100476.00;;;10.80
25514;BMP180;48128;54.242;10.280;2024-02-16T08:30:20;100465.00;;;10.80
25514;BMP180;48128;54.242;10.280;2024-02-16T08:32:47;100476.00;;;10.80
25514;BMP180;48128;54.242;10.280;2024-02-16T08:35:14;100478.00;;;10.90
25514;BMP180;48128;54.242;10.280;2024-02-16T08:37:44;100486.00;;;10.90
25514;BMP180;48128;54.242;10.280;2024-02-16T08:40:14;100465.00;;;10.90
25514;BMP180;48128;54.242;10.280;2024-02-16T08:42:41;100484.00;;;11.00
25514;BMP180;48128;54.242;10.280;2024-02-16T08:45:11;100474.00;;;11.10
25514;BMP180;48128;54.242;10.280;2024-02-16T08:47:40;100475.00;;;11.20
25514;BMP180;48128;54.242;10.280;2024-02-16T08:50:07;100470.00;;;11.30
25514;BMP180;48128;54.242;10.280;2024-02-16T08:52:35;100471.00;;;11.30
25514;BMP180;48128;54.242;10.280;2024-02-16T08:55:02;100476.00;;;11.30
25514;BMP180;48128;54.242;10.280;2024-02-16T08:57:31;100482.00;;;11.40
25514;BMP180;48128;54.242;10.280;2024-02-16T08:59:58;100470.00;;;11.40
25514;BMP180;48128;54.242;10.280;2024-02-16T09:02:25;100477.00;;;11.40
25514;BMP180;48128;54.242;10.280;2024-02-16T09:04:52;100486.00;;;11.50
25514;BMP180;48128;54.242;10.280;2024-02-16T09:07:19;100492.00;;;11.50
25514;BMP180;48128;54.242;10.280;2024-02-16T09:09:46;100495.00;;;11.60
25514;BMP180;48128;54.242;10.280;2024-02-16T09:12:13;100502.00;;;11.70
25514;BMP180;48128;54.242;10.280;2024-02-16T09:14:40;100510.00;;;11.80
25514;BMP180;48128;54.242;10.280;2024-02-16T09:17:07;100506.00;;;11.90
25514;BMP180;48128;54.242;10.280;2024-02-16T09:19:34;100498.00;;;12.00
25514;BMP180;48128;54.242;10.280;2024-02-16T09:22:01;100495.00;;;12.10
25514;BMP180;48128;54.242;10.280;2024-02-16T09:24:29;100511.00;;;12.10
25514;BMP180;48128;54.242;10.280;2024-02-16T09:26:57;100502.00;;;12.10
25514;BMP180;48128;54.242;10.280;2024-02-16T09:29:24;100502.00;;;12.10
25514;BMP180;48128;54.242;10.280;2024-02-16T09:31:51;100512.00;;;12.10
25514;BMP180;48128;54.242;10.280;2024-02-16T09:34:19;100491.00;;;12.10
25514;BMP180;48128;54.242;10.280;2024-02-16T09:36:46;100486.00;;;12.10
25514;BMP180;48128;54.242;10.280;2024-02-16T09:39:13;100494.00;;;12.00
25514;BMP180;48128;54.242;10.280;2024-02-16T09:41:41;100498.00;;;12.00
25514;BMP180;48128;54.242;10.280;2024-02-16T09:44:08;100489.00;;;12.00
25514;BMP180;48128;54.242;10.280;2024-02-16T09:46:37;100498.00;;;12.00
25514;BMP180;48128;54.242;10.280;2024-02-16T09:49:05;100493.00;;;12.00
25514;BMP180;48128;54.242;10.280;2024-02-16T09:51:36;100511.00;;;12.00
25514;BMP180;48128;54.242;10.280;2024-02-16T09:54:03;100513.00;;;12.00
25514;BMP180;48128;54.242;10.280;2024-02-16T09:56:30;100521.00;;;12.00
25514;BMP180;48128;54.242;10.280;2024-02-16T09:58:57;100496.00;;;12.00
25514;BMP180;48128;54.242;10.280;2024-02-16T10:01:24;100484.00;;;11.90
25514;BMP180;48128;54.242;10.280;2024-02-16T10:03:51;100489.00;;;11.90
25514;BMP180;48128;54.242;10.280;2024-02-16T10:06:18;100472.00;;;11.90
25514;BMP180;48128;54.242;10.280;2024-02-16T10:08:51;100476.00;;;12.00
25514;BMP180;48128;54.242;10.280;2024-02-16T10:11:20;100481.00;;;12.20
25514;BMP180;48128;54.242;10.280;2024-02-16T10:14:00;100474.00;;;12.40
25514;BMP180;48128;54.242;10.280;2024-02-16T10:16:30;100487.00;;;12.50
25514;BMP180;48128;54.242;10.280;2024-02-16T10:19:08;100484.00;;;12.70
25514;BMP180;48128;54.242;10.280;2024-02-16T10:21:42;100505.00;;;12.90
25514;BMP180;48128;54.242;10.280;2024-02-16T10:24:12;100507.00;;;13.00
25514;BMP180;48128;54.242;10.280;2024-02-16T10:26:41;100505.00;;;13.00
25514;BMP180;48128;54.242;10.280;2024-02-16T10:29:09;100521.00;;;12.90
25514;BMP180;48128;54.242;10.280;2024-02-16T10:31:40;100519.00;;;12.90
25514;BMP180;48128;54.242;10.280;2024-02-16T10:34:07;100525.00;;;12.90
25514;BMP180;48128;54.242;10.280;2024-02-16T10:36:37;100510.00;;;12.90
25514;BMP180;48128;54.242;10.280;2024-02-16T10:39:05;100504.00;;;13.00
25514;BMP180;48128;54.242;10.280;2024-02-16T10:41:34;100508.00;;;13.10
25514;BMP180;48128;54.242;10.280;2024-02-16T10:44:02;100523.00;;;13.10
25514;BMP180;48128;54.242;10.280;2024-02-16T10:46:31;100526.00;;;13.10
25514;BMP180;48128;54.242;10.280;2024-02-16T10:48:58;100518.00;;;13.10
25514;BMP180;48128;54.242;10.280;2024-02-16T10:51:36;100538.00;;;13.10
25514;BMP180;48128;54.242;10.280;2024-02-16T10:54:05;100533.00;;;13.10
25514;BMP180;48128;54.242;10.280;2024-02-16T10:56:37;100544.00;;;13.10
25514;BMP180;48128;54.242;10.280;2024-02-16T10:59:05;100539.00;;;13.10
25514;BMP180;48128;54.242;10.280;2024-02-16T11:01:39;100530.00;;;13.00
25514;BMP180;48128;54.242;10.280;2024-02-16T11:04:07;100539.00;;;13.00
25514;BMP180;48128;54.242;10.280;2024-02-16T11:06:47;100532.00;;;13.00
25514;BMP180;48128;54.242;10.280;2024-02-16T11:09:35;100533.00;;;12.90
25514;BMP180;48128;54.242;10.280;2024-02-16T11:12:04;100527.00;;;12.90
25514;BMP180;48128;54.242;10.280;2024-02-16T11:14:41;100518.00;;;12.80
25514;BMP180;48128;54.242;10.280;2024-02-16T11:17:13;100508.00;;;12.70
25514;BMP180;48128;54.242;10.280;2024-02-16T11:19:45;100500.00;;;12.60
25514;BMP180;48128;54.242;10.280;2024-02-16T11:22:16;100485.00;;;12.60
25514;BMP180;48128;54.242;10.280;2024-02-16T11:24:49;100491.00;;;12.60
25514;BMP180;48128;54.242;10.280;2024-02-16T11:27:17;100490.00;;;12.60
25514;BMP180;48128;54.242;10.280;2024-02-16T11:29:48;100479.00;;;12.70
25514;BMP180;48128;54.242;10.280;2024-02-16T11:32:17;100480.00;;;12.80
25514;BMP180;48128;54.242;10.280;2024-02-16T11:34:44;100468.00;;;12.80
25514;BMP180;48128;54.242;10.280;2024-02-16T11:37:12;100481.00;;;12.90
25514;BMP180;48128;54.242;10.280;2024-02-16T11:39:39;100492.00;;;13.00
25514;BMP180;48128;54.242;10.280;2024-02-16T11:42:10;100496.00;;;13.10
25514;BMP180;48128;54.242;10.280;2024-02-16T11:44:39;100503.00;;;13.20
25514;BMP180;48128;54.242;10.280;2024-02-16T11:47:08;100497.00;;;13.30
25514;BMP180;48128;54.242;10.280;2024-02-16T11:49:43;100512.00;;;13.40
25514;BMP180;48128;54.242;10.280;2024-02-16T11:52:11;100507.00;;;13.40
25514;BMP180;48128;54.242;10.280;2024-02-16T11:54:38;100512.00;;;13.50
25514;BMP180;48128;54.242;10.280;2024-02-16T11:57:08;100525.00;;;13.50
25514;BMP180;48128;54.242;10.280;2024-02-16T11:59:35;100522.00;;;13.60
25514;BMP180;48128;54.242;10.280;2024-02-16T12:02:02;100532.00;;;13.70
25514;BMP180;48128;54.242;10.280;2024-02-16T12:04:30;100532.00;;;13.70
25514;BMP180;48128;54.242;10.280;2024-02-16T12:06:58;100535.00;;;13.80
25514;BMP180;48128;54.242;10.280;2024-02-16T12:09:31;100534.00;;;13.90
25514;BMP180;48128;54.242;10.280;2024-02-16T12:12:02;100544.00;;;14.00
25514;BMP180;48128;54.242;10.280;2024-02-16T12:14:30;100547.00;;;14.20
25514;BMP180;48128;54.242;10.280;2024-02-16T12:16:57;100542.00;;;14.40
25514;BMP180;48128;54.242;10.280;2024-02-16T12:19:24;100556.00;;;14.50
25514;BMP180;48128;54.242;10.280;2024-02-16T12:21:52;100554.00;;;14.60
25514;BMP180;48128;54.242;10.280;2024-02-16T12:24:20;100567.00;;;14.60
25514;BMP180;48128;54.242;10.280;2024-02-16T12:26:47;100548.00;;;14.50
25514;BMP180;48128;54.242;10.280;2024-02-16T12:29:14;100542.00;;;14.50
25514;BMP180;48128;54.242;10.280;2024-02-16T12:31:44;100542.00;;;14.40
25514;BMP180;48128;54.242;10.280;2024-02-16T12:34:11;100528.00;;;14.30
25514;BMP180;48128;54.242;10.280;2024-02-16T12:36:40;100524.00;;;14.40
25514;BMP180;48128;54.242;10.280;2024-02-16T12:39:11;100524.00;;;14.30
25514;BMP180;48128;54.242;10.280;2024-02-16T12:41:41;100531.00;;;14.30
25514;BMP180;48128;54.242;10.280;2024-02-16T12:44:10;100535.00;;;14.30
25514;BMP180;48128;54.242;10.280;2024-02-16T12:46:36;100516.00;;;14.30
25514;BMP180;48128;54.242;10.280;2024-02-16T12:49:06;100527.00;;;14.40
25514;BMP180;48128;54.242;10.280;2024-02-16T12:51:34;100527.00;;;14.50
25514;BMP180;48128;54.242;10.280;2024-02-16T12:54:01;100532.00;;;14.50
25514;BMP180;48128;54.242;10.280;2024-02-16T12:56:30;100553.00;;;14.50
25514;BMP180;48128;54.242;10.280;2024-02-16T12:58:57;100543.00;;;14.40
25514;BMP180;48128;54.242;10.280;2024-02-16T13:01:27;100545.00;;;14.40
25514;BMP180;48128;54.242;10.280;2024-02-16T13:03:54;100540.00;;;14.40
25514;BMP180;48128;54.242;10.280;2024-02-16T13:06:21;100533.00;;;14.40
25514;BMP180;48128;54.242;10.280;2024-02-16T13:08:54;100537.00;;;14.40
25514;BMP180;48128;54.242;10.280;2024-02-16T13:11:21;100539.00;;;14.30
25514;BMP180;48128;54.242;10.280;2024-02-16T13:13:48;100531.00;;;14.30
25514;BMP180;48128;54.242;10.280;2024-02-16T13:16:15;100530.00;;;14.30
25514;BMP180;48128;54.242;10.280;2024-02-16T13:18:42;100539.00;;;14.30
25514;BMP180;48128;54.242;10.280;2024-02-16T13:21:09;100535.00;;;14.20
25514;BMP180;48128;54.242;10.280;2024-02-16T13:23:36;100518.00;;;14.20
25514;BMP180;48128;54.242;10.280;2024-02-16T13:26:03;100525.00;;;14.20
25514;BMP180;48128;54.242;10.280;2024-02-16T13:28:31;100528.00;;;14.20
25514;BMP180;48128;54.242;10.280;2024-02-16T13:30:58;100532.00;;;14.10
25514;BMP180;48128;54.242;10.280;2024-02-16T13:33:25;100537.00;;;14.10
25514;BMP180;48128;54.242;10.280;2024-02-16T13:35:53;100526.00;;;14.10
25514;BMP180;48128;54.242;10.280;2024-02-16T13:38:21;100534.00;;;14.10
25514;BMP180;48128;54.242;10.280;2024-02-16T13:40:48;100528.00;;;14.10
25514;BMP180;48128;54.242;10.280;2024-02-16T13:43:16;100528.00;;;14.00
25514;BMP180;48128;54.242;10.280;2024-02-16T13:45:51;100531.00;;;13.90
25514;BMP180;48128;54.242;10.280;2024-02-16T13:48:19;100530.00;;;13.90
25514;BMP180;48128;54.242;10.280;2024-02-16T13:50:47;100534.00;;;13.80
25514;BMP180;48128;54.242;10.280;2024-02-16T13:53:15;100513.00;;;13.80